createdAt,value
2018-07-07T00:00:14.048Z,56.03
2018-07-07T00:02:48.860Z,56.55
2018-07-07T00:05:23.428Z,56.09
2018-07-07T00:07:55.167Z,57.01
2018-07-07T00:10:29.752Z,56.22
2018-07-07T00:13:01.399Z,57.36
2018-07-07T00:15:36.108Z,57.47
2018-07-07T00:18:09.912Z,57.52
2018-07-07T00:20:44.629Z,57.04
2018-07-07T00:23:16.350Z,58.22
2018-07-07T00:25:49.264Z,59.48
2018-07-07T00:28:21.602Z,60.81
2018-07-07T00:30:54.647Z,61.44
2018-07-07T00:33:27.831Z,61.98
2018-07-07T00:36:00.202Z,60.63
2018-07-07T00:38:31.714Z,62.14
2018-07-07T00:41:03.395Z,59.92
2018-07-07T00:43:35.043Z,60.95
2018-07-07T00:46:08.593Z,62.18
2018-07-07T00:48:41.045Z,62.71
2018-07-07T00:51:12.522Z,61.42
2018-07-07T00:53:45.009Z,60.17
2018-07-07T00:56:16.808Z,62.19
2018-07-07T00:58:48.425Z,62.38
2018-07-07T01:01:20.613Z,61.01
2018-07-07T01:03:54.038Z,61.49
2018-07-07T01:06:32.681Z,61.20
2018-07-07T01:09:04.961Z,59.34
2018-07-07T01:11:37.918Z,59.50
2018-07-07T01:14:13.007Z,60.34
2018-07-07T01:16:46.166Z,60.90
2018-07-07T01:19:19.234Z,62.87
2018-07-07T01:21:53.908Z,64.15
2018-07-07T01:24:26.848Z,63.26
2018-07-07T01:26:56.773Z,63.95
2018-07-07T01:29:28.542Z,64.53
2018-07-07T01:32:01.526Z,65.35
2018-07-07T01:34:35.689Z,65.62
2018-07-07T01:37:05.847Z,65.72
2018-07-07T01:39:38.086Z,65.17
2018-07-07T01:42:09.618Z,65.32
2018-07-07T01:44:42.608Z,65.02
2018-07-07T01:47:17.240Z,64.63
2018-07-07T01:49:49.051Z,64.42
2018-07-07T01:52:21.933Z,64.07
2018-07-07T01:54:55.248Z,64.43
2018-07-07T01:57:29.940Z,64.99
2018-07-07T02:00:01.514Z,65.76
2018-07-07T02:02:34.527Z,66.17
2018-07-07T02:05:04.338Z,66.58
2018-07-07T02:07:37.536Z,66.79
2018-07-07T02:10:10.413Z,66.66
2018-07-07T02:12:42.545Z,66.91
2018-07-07T02:15:15.484Z,66.93
2018-07-07T02:17:49.060Z,67.85
2018-07-07T02:20:22.051Z,67.97
2018-07-07T02:22:55.646Z,67.71
2018-07-07T02:25:28.568Z,66.21
2018-07-07T02:28:01.951Z,64.10
2018-07-07T02:30:35.617Z,63.63
2018-07-07T02:33:10.709Z,63.37
2018-07-07T02:35:42.396Z,63.15
2018-07-07T02:38:14.116Z,63.13
2018-07-07T02:40:45.860Z,63.43
2018-07-07T02:43:19.180Z,63.16
2018-07-07T02:45:51.682Z,62.75
2018-07-07T02:48:22.601Z,63.36
2018-07-07T02:50:56.450Z,63.85
2018-07-07T02:53:27.897Z,63.71
2018-07-07T02:56:00.786Z,64.02
2018-07-07T02:58:34.799Z,64.66
2018-07-07T03:01:06.438Z,64.12
2018-07-07T03:03:38.104Z,63.84
2018-07-07T03:06:08.200Z,63.39
2018-07-07T03:08:41.214Z,64.36
2018-07-07T03:11:14.179Z,64.26
2018-07-07T03:13:46.373Z,65.35
2018-07-07T03:16:20.418Z,64.60
2018-07-07T03:18:50.958Z,64.51
2018-07-07T03:21:21.117Z,66.20
2018-07-07T03:23:54.225Z,66.47
2018-07-07T03:26:28.847Z,66.28
2018-07-07T03:28:58.981Z,66.73
2018-07-07T03:31:30.706Z,67.26
2018-07-07T03:34:05.586Z,67.94
2018-07-07T03:36:40.144Z,67.67
2018-07-07T03:39:11.749Z,67.70
2018-07-07T03:41:43.867Z,67.77
2018-07-07T03:44:17.066Z,66.90
2018-07-07T03:46:50.074Z,65.08
2018-07-07T03:49:20.083Z,63.55
2018-07-07T03:51:53.139Z,62.88
2018-07-07T03:54:24.849Z,62.15
2018-07-07T03:56:56.078Z,61.57
2018-07-07T03:59:29.116Z,59.83
2018-07-07T04:02:00.537Z,59.64
2018-07-07T04:04:35.228Z,57.54
2018-07-07T04:07:10.591Z,56.60
2018-07-07T04:09:44.156Z,56.37
2018-07-07T04:12:17.544Z,56.33
2018-07-07T04:14:50.964Z,55.31
2018-07-07T04:17:25.518Z,54.69
2018-07-07T04:20:00.123Z,53.79
2018-07-07T04:22:31.576Z,53.31
2018-07-07T04:25:06.156Z,53.36
2018-07-07T04:27:39.040Z,54.21
2018-07-07T04:30:10.622Z,53.22
2018-07-07T04:32:44.142Z,51.76
2018-07-07T04:35:19.013Z,52.12
2018-07-07T04:37:50.617Z,51.60
2018-07-07T04:40:25.297Z,53.17
2018-07-07T04:42:56.769Z,51.71
2018-07-07T04:45:28.344Z,51.23
2018-07-07T04:48:00.048Z,50.66
2018-07-07T04:50:30.025Z,50.17
2018-07-07T04:53:02.878Z,49.81
2018-07-07T04:55:34.304Z,48.87
2018-07-07T04:58:07.855Z,48.97
2018-07-07T05:00:40.814Z,47.78
2018-07-07T05:03:15.238Z,46.80
2018-07-07T05:05:48.146Z,45.70
2018-07-07T05:08:22.438Z,45.34
2018-07-07T05:10:54.576Z,45.25
2018-07-07T05:13:27.581Z,43.21
2018-07-07T05:15:58.299Z,43.54
2018-07-07T05:18:29.782Z,42.32
2018-07-07T05:21:01.176Z,39.46
2018-07-07T05:23:35.792Z,40.46
2018-07-07T05:26:08.935Z,41.27
2018-07-07T05:28:40.308Z,39.09
2018-07-07T05:31:14.667Z,39.81
2018-07-07T05:33:47.564Z,39.08
2018-07-07T05:36:19.615Z,38.68
2018-07-07T05:38:51.675Z,40.39
2018-07-07T05:41:24.541Z,38.87
2018-07-07T05:43:55.948Z,37.46
2018-07-07T05:46:25.822Z,37.14
2018-07-07T05:48:57.451Z,36.34
2018-07-07T05:51:28.914Z,36.20
2018-07-07T05:54:00.540Z,34.93
2018-07-07T05:56:35.108Z,34.17
2018-07-07T05:59:08.602Z,34.08
2018-07-07T06:01:40.498Z,32.68
2018-07-07T06:04:15.018Z,34.19
2018-07-07T06:06:48.351Z,33.77
2018-07-07T06:09:17.916Z,31.32
2018-07-07T06:11:50.991Z,31.73
2018-07-07T06:14:21.232Z,32.66
2018-07-07T06:16:52.639Z,33.38
2018-07-07T06:19:25.804Z,33.12
2018-07-07T06:22:00.406Z,31.76
2018-07-07T06:24:33.464Z,31.47
2018-07-07T06:27:07.167Z,30.65
2018-07-07T06:29:37.109Z,31.86
2018-07-07T06:32:07.151Z,31.32
2018-07-07T06:34:39.018Z,35.46
2018-07-07T06:37:11.961Z,35.02
2018-07-07T06:39:44.857Z,32.49
2018-07-07T06:42:14.947Z,32.08
2018-07-07T06:44:45.869Z,29.61
2018-07-07T06:47:20.182Z,30.74
2018-07-07T06:49:53.402Z,32.03
2018-07-07T06:52:27.964Z,31.44
2018-07-07T06:55:00.898Z,33.06
2018-07-07T06:57:33.819Z,32.47
2018-07-07T07:00:08.446Z,30.56
2018-07-07T07:02:43.008Z,28.55
2018-07-07T07:05:16.118Z,30.67
2018-07-07T07:07:48.933Z,29.34
2018-07-07T07:10:20.448Z,30.20
2018-07-07T07:12:54.839Z,29.39
2018-07-07T07:15:26.251Z,26.24
2018-07-07T07:17:59.171Z,25.98
2018-07-07T07:20:31.301Z,25.49
2018-07-07T07:23:02.887Z,27.81
2018-07-07T07:25:35.828Z,28.36
2018-07-07T07:28:08.872Z,27.24
2018-07-07T07:30:41.809Z,22.99
2018-07-07T07:33:11.789Z,22.56
2018-07-07T07:35:44.686Z,26.73
2018-07-07T07:38:16.092Z,25.68
2018-07-07T07:40:49.361Z,26.83
2018-07-07T07:43:20.771Z,26.20
2018-07-07T07:45:53.560Z,25.32
2018-07-07T07:48:25.035Z,22.74
2018-07-07T07:50:57.933Z,23.54
2018-07-07T07:53:29.351Z,22.44
2018-07-07T07:56:02.642Z,23.11
2018-07-07T07:58:35.403Z,23.38
2018-07-07T08:01:08.253Z,23.73
2018-07-07T08:03:39.632Z,22.05
2018-07-07T08:06:09.762Z,23.34
2018-07-07T08:08:41.181Z,23.13
2018-07-07T08:11:11.571Z,19.66
2018-07-07T08:13:43.180Z,23.86
2018-07-07T08:16:14.495Z,20.33
2018-07-07T08:18:49.417Z,21.40
2018-07-07T08:21:20.860Z,21.92
2018-07-07T08:23:52.990Z,22.76
2018-07-07T08:26:24.528Z,19.73
2018-07-07T08:28:55.887Z,19.44
2018-07-07T08:31:30.587Z,19.38
2018-07-07T08:34:02.118Z,17.78
2018-07-07T08:36:33.149Z,17.82
2018-07-07T08:39:05.854Z,19.31
2018-07-07T08:41:35.810Z,17.93
2018-07-07T08:44:07.703Z,18.30
2018-07-07T08:46:39.204Z,20.63
2018-07-07T08:49:09.090Z,17.72
2018-07-07T08:51:42.650Z,17.64
2018-07-07T08:54:15.310Z,17.22
2018-07-07T08:56:46.743Z,20.86
2018-07-07T08:59:20.968Z,17.71
2018-07-07T09:01:52.848Z,17.10
2018-07-07T09:04:24.188Z,17.51
2018-07-07T09:06:55.846Z,19.26
2018-07-07T09:09:27.227Z,18.41
2018-07-07T09:11:58.664Z,16.49
2018-07-07T09:14:32.307Z,16.04
2018-07-07T09:17:05.753Z,17.22
2018-07-07T09:19:37.099Z,17.82
2018-07-07T09:22:10.246Z,19.72
2018-07-07T09:24:43.058Z,18.39
2018-07-07T09:27:16.072Z,17.27
2018-07-07T09:29:48.779Z,16.65
2018-07-07T09:32:21.734Z,17.92
2018-07-07T09:34:51.703Z,18.27
2018-07-07T09:37:23.589Z,19.37
2018-07-07T09:39:57.216Z,19.30
2018-07-07T09:42:30.964Z,22.69
2018-07-07T09:45:04.307Z,21.06
2018-07-07T09:47:37.555Z,21.03
2018-07-07T09:50:09.953Z,21.18
2018-07-07T09:52:41.448Z,22.70
2018-07-07T09:55:12.876Z,21.59
2018-07-07T09:57:44.246Z,23.15
2018-07-07T10:00:39.623Z,21.64
2018-07-07T10:03:14.839Z,21.51
2018-07-07T10:05:47.821Z,23.18
2018-07-07T10:08:20.697Z,22.92
2018-07-07T10:10:53.603Z,21.29
2018-07-07T10:13:25.080Z,23.53
2018-07-07T10:15:57.858Z,23.63
2018-07-07T10:18:29.904Z,24.60
2018-07-07T10:21:02.748Z,21.87
2018-07-07T10:23:34.119Z,21.66
2018-07-07T10:26:05.597Z,21.41
2018-07-07T10:28:38.433Z,21.94
2018-07-07T10:31:11.313Z,21.49
2018-07-07T10:33:44.338Z,21.28
2018-07-07T10:36:17.161Z,19.92
2018-07-07T10:38:50.960Z,19.96
2018-07-07T10:41:23.777Z,20.98
2018-07-07T10:43:58.267Z,22.68
2018-07-07T10:46:32.567Z,20.60
2018-07-07T10:49:05.445Z,20.11
2018-07-07T10:51:38.280Z,23.04
2018-07-07T10:54:09.697Z,20.32
2018-07-07T10:56:43.242Z,23.66
2018-07-07T10:59:17.618Z,22.64
2018-07-07T11:01:49.692Z,22.76
2018-07-07T11:04:19.688Z,23.31
2018-07-07T11:06:54.087Z,24.63
2018-07-07T11:09:26.942Z,23.37
2018-07-07T11:11:59.960Z,22.23
2018-07-07T11:14:30.008Z,22.62
2018-07-07T11:17:01.390Z,22.40
2018-07-07T11:19:34.183Z,22.28
2018-07-07T11:22:04.273Z,24.50
2018-07-07T11:24:36.110Z,23.10
2018-07-07T11:27:07.779Z,21.78
2018-07-07T11:29:39.642Z,23.54
2018-07-07T11:32:11.204Z,22.59
2018-07-07T11:34:44.065Z,23.96
2018-07-07T11:37:15.359Z,22.67
2018-07-07T11:39:50.052Z,22.25
2018-07-07T11:42:21.735Z,22.23
2018-07-07T11:44:54.753Z,23.20
2018-07-07T11:47:29.061Z,24.94
2018-07-07T11:49:59.053Z,22.68
2018-07-07T11:52:32.645Z,22.60
2018-07-07T11:55:04.379Z,23.93
2018-07-07T11:57:35.156Z,23.41
2018-07-07T12:00:08.209Z,24.15
2018-07-07T12:02:40.995Z,25.57
2018-07-07T12:05:15.520Z,25.12
2018-07-07T12:07:47.016Z,24.40
2018-07-07T12:10:18.468Z,23.99
2018-07-07T12:12:51.341Z,24.54
2018-07-07T12:15:25.621Z,24.01
2018-07-07T12:17:58.874Z,24.59
2018-07-07T12:20:33.163Z,24.57
2018-07-07T12:23:05.078Z,23.35
2018-07-07T12:25:37.990Z,24.47
2018-07-07T12:28:12.712Z,26.06
2018-07-07T12:30:47.196Z,28.18
2018-07-07T12:33:20.105Z,27.48
2018-07-07T12:35:52.948Z,26.53
2018-07-07T12:38:24.359Z,28.48
2018-07-07T12:40:56.811Z,29.38
2018-07-07T12:43:29.957Z,29.76
2018-07-07T12:46:02.888Z,27.86
2018-07-07T12:48:32.898Z,29.34
2018-07-07T12:51:07.153Z,28.72
2018-07-07T12:53:41.847Z,29.09
2018-07-07T12:56:16.212Z,30.46
2018-07-07T12:58:47.682Z,29.38
2018-07-07T13:01:19.143Z,29.84
2018-07-07T13:03:52.026Z,28.93
2018-07-07T13:06:23.399Z,28.58
2018-07-07T13:08:56.186Z,30.23
2018-07-07T13:11:27.664Z,28.65
2018-07-07T13:14:01.566Z,30.93
2018-07-07T13:16:36.348Z,29.52
2018-07-07T13:19:10.760Z,30.16
2018-07-07T13:21:43.801Z,28.86
2018-07-07T13:24:18.158Z,29.97
2018-07-07T13:26:52.524Z,30.34
2018-07-07T13:29:27.324Z,30.13
2018-07-07T13:31:57.194Z,30.14
2018-07-07T13:34:27.107Z,29.36
2018-07-07T13:36:57.171Z,30.85
2018-07-07T13:39:28.538Z,30.14
2018-07-07T13:42:01.406Z,29.63
2018-07-07T13:44:35.821Z,29.24
2018-07-07T13:47:08.974Z,29.51
2018-07-07T13:49:41.643Z,29.75
2018-07-07T13:52:13.199Z,28.16
2018-07-07T13:54:46.066Z,29.56
2018-07-07T13:57:17.489Z,29.69
2018-07-07T13:59:51.745Z,30.39
2018-07-07T14:02:25.188Z,28.32
2018-07-07T14:04:58.128Z,31.36
2018-07-07T14:07:28.815Z,31.02
2018-07-07T14:10:03.379Z,30.31
2018-07-07T14:12:36.192Z,31.52
2018-07-07T14:15:07.623Z,30.19
2018-07-07T14:17:38.968Z,32.02
2018-07-07T14:20:11.868Z,31.94
2018-07-07T14:22:44.714Z,32.24
2018-07-07T14:25:16.143Z,35.57
2018-07-07T14:27:47.669Z,33.27
2018-07-07T14:30:22.256Z,33.92
2018-07-07T14:32:53.690Z,35.12
2018-07-07T14:35:24.565Z,34.41
2018-07-07T14:37:55.728Z,33.27
2018-07-07T14:40:30.005Z,35.48
2018-07-07T14:43:04.350Z,33.07
2018-07-07T14:45:37.642Z,34.35
2018-07-07T14:48:10.689Z,34.62
2018-07-07T14:50:41.201Z,34.06
2018-07-07T14:53:13.307Z,32.93
2018-07-07T14:55:44.897Z,34.16
2018-07-07T14:58:17.779Z,33.89
2018-07-07T15:00:52.158Z,34.55
2018-07-07T15:03:23.535Z,36.13
2018-07-07T15:05:56.475Z,34.28
2018-07-07T15:08:29.341Z,36.05
2018-07-07T15:11:02.569Z,34.50
2018-07-07T15:13:36.082Z,34.92
2018-07-07T15:16:06.778Z,35.93
2018-07-07T15:18:39.755Z,35.12
2018-07-07T15:21:12.840Z,34.52
2018-07-07T15:23:45.739Z,35.69
2018-07-07T15:26:18.793Z,35.10
2018-07-07T15:28:51.673Z,35.69
2018-07-07T15:31:26.054Z,36.46
2018-07-07T15:33:59.065Z,35.82
2018-07-07T15:36:31.997Z,36.41
2018-07-07T15:39:05.264Z,36.71
2018-07-07T15:41:38.171Z,34.80
2018-07-07T15:44:12.739Z,35.39
2018-07-07T15:46:45.027Z,37.05
2018-07-07T15:49:16.385Z,37.74
2018-07-07T15:51:49.458Z,37.15
2018-07-07T15:54:21.505Z,39.53
2018-07-07T15:56:54.378Z,37.70
2018-07-07T15:59:29.083Z,38.87
2018-07-07T16:02:03.582Z,39.06
2018-07-07T16:04:35.089Z,39.71
2018-07-07T16:07:08.679Z,38.63
2018-07-07T16:09:41.914Z,40.93
2018-07-07T16:12:14.808Z,39.60
2018-07-07T16:14:49.124Z,40.40
2018-07-07T16:17:23.507Z,38.36
2018-07-07T16:19:58.203Z,38.72
2018-07-07T16:22:31.180Z,39.19
2018-07-07T16:25:02.847Z,41.29
2018-07-07T16:27:34.852Z,40.26
2018-07-07T16:30:09.716Z,39.66
2018-07-07T16:32:40.861Z,41.10
2018-07-07T16:35:15.190Z,41.36
2018-07-07T16:37:46.724Z,41.22
2018-07-07T16:40:18.176Z,42.88
2018-07-07T16:42:48.288Z,42.94
2018-07-07T16:45:21.127Z,42.37
2018-07-07T16:47:52.879Z,43.76
2018-07-07T16:50:26.063Z,43.95
2018-07-07T16:52:59.344Z,45.21
2018-07-07T16:55:29.423Z,45.05
2018-07-07T16:58:00.884Z,44.91
2018-07-07T17:00:33.300Z,45.80
2018-07-07T17:03:03.218Z,46.71
2018-07-07T17:05:35.987Z,46.24
2018-07-07T17:08:08.015Z,46.09
2018-07-07T17:10:38.562Z,46.08
2018-07-07T17:13:08.523Z,46.55
2018-07-07T17:15:41.640Z,45.92
2018-07-07T17:18:16.561Z,46.08
2018-07-07T17:20:48.635Z,45.77
2018-07-07T17:23:21.604Z,46.63
2018-07-07T17:25:54.932Z,45.50
2018-07-07T17:28:29.340Z,46.38
2018-07-07T17:31:04.930Z,44.80
2018-07-07T17:33:39.294Z,44.39
2018-07-07T17:36:10.799Z,43.77
2018-07-07T17:38:45.596Z,44.13
2018-07-07T17:41:17.458Z,44.18
2018-07-07T17:43:53.775Z,44.51
2018-07-07T17:46:26.786Z,44.17
2018-07-07T17:48:58.145Z,45.50
2018-07-07T17:51:31.960Z,44.00
2018-07-07T17:54:07.273Z,43.35
2018-07-07T17:56:42.968Z,43.79
2018-07-07T17:59:13.173Z,45.08
2018-07-07T18:01:43.721Z,43.23
2018-07-07T18:04:15.688Z,42.03
2018-07-07T18:06:47.284Z,43.67
2018-07-07T18:09:17.733Z,43.84
2018-07-07T18:11:49.469Z,44.37
2018-07-07T18:14:23.338Z,43.76
2018-07-07T18:16:57.917Z,42.18
2018-07-07T18:19:30.822Z,41.99
2018-07-07T18:22:03.943Z,42.44
2018-07-07T18:24:33.501Z,42.71
2018-07-07T18:27:06.370Z,42.87
2018-07-07T18:29:38.223Z,42.56
2018-07-07T18:32:09.730Z,42.15
2018-07-07T18:34:42.733Z,40.71
2018-07-07T18:37:15.785Z,38.12
2018-07-07T18:39:48.941Z,37.12
2018-07-07T18:42:24.618Z,37.18
2018-07-07T18:44:57.998Z,37.72
2018-07-07T18:47:30.999Z,34.21
2018-07-07T18:50:05.806Z,34.91
2018-07-07T18:52:37.565Z,35.16
2018-07-07T18:55:08.932Z,35.91
2018-07-07T18:57:43.566Z,37.07
2018-07-07T19:00:16.578Z,37.07
2018-07-07T19:02:48.517Z,38.24
2018-07-07T19:05:21.498Z,38.36
2018-07-07T19:07:52.975Z,38.85
2018-07-07T19:10:25.784Z,39.61
2018-07-07T19:12:59.918Z,40.12
2018-07-07T19:15:33.285Z,39.94
2018-07-07T19:18:06.380Z,38.65
2018-07-07T19:20:55.617Z,38.46
2018-07-07T19:23:45.274Z,36.58
2018-07-07T19:26:34.454Z,35.63
2018-07-07T19:29:07.558Z,35.14
2018-07-07T19:31:57.657Z,34.30
2018-07-07T19:34:46.789Z,33.77
2018-07-07T19:37:22.183Z,35.02
2018-07-07T19:39:53.807Z,34.46
2018-07-07T19:42:25.696Z,35.11
2018-07-07T19:44:58.615Z,35.29
2018-07-07T19:47:30.446Z,37.05
2018-07-07T19:50:03.432Z,35.90
2018-07-07T19:52:36.773Z,35.70
2018-07-07T19:55:09.692Z,36.79
2018-07-07T19:57:39.824Z,38.05
2018-07-07T20:00:12.828Z,38.60
2018-07-07T20:02:45.962Z,40.70
2018-07-07T20:05:19.089Z,41.76
2018-07-07T20:07:52.244Z,42.29
2018-07-07T20:10:25.341Z,42.88
2018-07-07T20:12:58.779Z,43.90
2018-07-07T20:16:23.633Z,43.92
2018-07-07T20:19:25.947Z,44.26
2018-07-07T20:22:03.531Z,46.74
2018-07-07T20:24:36.926Z,48.22
2018-07-07T20:27:28.017Z,48.97
2018-07-07T20:29:59.549Z,49.86
2018-07-07T20:32:56.994Z,51.29
2018-07-07T20:35:31.454Z,52.08
2018-07-07T20:38:03.087Z,52.70
2018-07-07T20:40:35.982Z,53.42
2018-07-07T20:43:07.644Z,54.17
2018-07-07T20:45:39.599Z,54.95
2018-07-07T20:48:11.117Z,55.64
2018-07-07T20:50:42.559Z,56.91
2018-07-07T20:53:14.072Z,57.69
2018-07-07T20:55:47.072Z,57.52
2018-07-07T20:58:20.542Z,58.23
2018-07-07T21:00:53.347Z,58.66
2018-07-07T21:03:25.436Z,59.26
2018-07-07T21:05:58.930Z,59.50
2018-07-07T21:08:33.846Z,60.24
2018-07-07T21:11:08.452Z,60.47
2018-07-07T21:13:40.215Z,61.00
2018-07-07T21:16:11.939Z,61.06
2018-07-07T21:18:45.687Z,61.42
2018-07-07T21:21:17.372Z,61.76
2018-07-07T21:23:50.734Z,62.08
2018-07-07T21:26:25.275Z,62.26
2018-07-07T21:28:58.210Z,62.69
2018-07-07T21:31:29.017Z,63.02
2018-07-07T21:34:00.480Z,63.65
2018-07-07T21:36:31.998Z,63.54
2018-07-07T21:39:03.535Z,63.68
2018-07-07T21:41:36.707Z,63.70
2018-07-07T21:44:10.064Z,64.48
2018-07-07T21:46:40.531Z,64.85
2018-07-07T21:49:13.872Z,65.02
2018-07-07T21:51:45.809Z,65.14
2018-07-07T21:54:18.958Z,65.12
2018-07-07T21:56:59.298Z,65.27
2018-07-07T21:59:30.716Z,65.53
2018-07-07T22:02:21.403Z,65.63
2018-07-07T22:05:11.233Z,65.62
2018-07-07T22:07:42.782Z,66.26
2018-07-07T22:10:14.939Z,65.92
2018-07-07T22:12:49.484Z,65.54
2018-07-07T22:15:22.587Z,65.67
2018-07-07T22:17:52.542Z,65.73
2018-07-07T22:20:37.395Z,65.49
2018-07-07T22:23:10.945Z,65.21
2018-07-07T22:25:44.393Z,65.51
2018-07-07T22:28:15.962Z,65.77
2018-07-07T22:30:48.993Z,65.54
2018-07-07T22:33:27.415Z,65.83
2018-07-07T22:36:17.810Z,65.57
2018-07-07T22:39:00.255Z,65.79
2018-07-07T22:41:58.687Z,65.49
2018-07-07T22:44:33.554Z,65.00
2018-07-07T22:47:07.897Z,64.42
2018-07-07T22:49:42.451Z,64.55
2018-07-07T22:52:15.371Z,64.62
2018-07-07T22:54:49.903Z,64.90
2018-07-07T22:57:22.846Z,65.01
2018-07-07T22:59:54.507Z,65.35
2018-07-07T23:02:28.869Z,65.59
2018-07-07T23:05:01.937Z,65.50
2018-07-07T23:07:35.039Z,65.60
2018-07-07T23:10:08.668Z,64.81
2018-07-07T23:12:42.034Z,65.55
2018-07-07T23:15:15.359Z,64.58
2018-07-07T23:17:47.006Z,64.64
2018-07-07T23:20:18.957Z,64.41
2018-07-07T23:22:57.488Z,64.48
2018-07-07T23:25:29.045Z,64.34
2018-07-07T23:28:02.606Z,64.45
2018-07-07T23:30:36.380Z,64.15
2018-07-07T23:33:06.433Z,64.53
2018-07-07T23:35:41.263Z,64.30
2018-07-07T23:38:11.402Z,64.75
2018-07-07T23:40:42.684Z,64.72
2018-07-07T23:43:14.162Z,64.32
2018-07-07T23:45:47.158Z,64.46
2018-07-07T23:48:18.609Z,64.18
2018-07-07T23:50:51.230Z,64.10
2018-07-07T23:53:23.013Z,63.36
2018-07-07T23:55:53.369Z,63.88
2018-07-07T23:58:26.233Z,64.14
